Time;durP1;ratioP1;P1;durP2;ratioP2;P2;SDS_P1;SDS_P2;PMS_P1;PMS_P2;Temp;Humidity;BMP_temperature;BMP_pressure;BME280_temperature;BME280_humidity;BME280_pressure;Samples;Min_cycle;Max_cycle;Signal;HPM_P1;HPM_P2
2023/01/18 05:29:49;;;;;;;26.20;14.00;;;-0.50;1.00;;;;;;6151942;23;20274;-91
2023/01/18 05:32:16;;;;;;;28.43;13.63;;;-0.50;1.00;;;;;;6213535;23;20200;-94
2023/01/18 05:34:43;;;;;;;32.00;16.43;;;-0.50;1.00;;;;;;6216839;23;20172;-94
2023/01/18 05:37:10;;;;;;;33.00;16.57;;;-0.50;1.00;;;;;;6217106;23;20203;-94
2023/01/18 05:39:37;;;;;;;28.07;14.77;;;-0.50;1.00;;;;;;6216783;23;20654;-94
2023/01/18 05:42:04;;;;;;;32.20;16.37;;;-0.50;1.00;;;;;;6217269;23;20172;-93
2023/01/18 05:44:31;;;;;;;28.57;15.07;;;-0.50;1.00;;;;;;6216399;23;20497;-93
2023/01/18 05:46:59;;;;;;;29.37;15.27;;;-0.50;1.00;;;;;;6216665;23;20173;-93
2023/01/18 05:49:26;;;;;;;31.93;16.77;;;-0.50;1.00;;;;;;6216461;23;20172;-92
2023/01/18 05:51:53;;;;;;;30.40;16.47;;;-0.50;1.00;;;;;;6216776;23;20173;-93
2023/01/18 05:54:20;;;;;;;31.30;15.30;;;-0.50;1.00;;;;;;6216755;23;20204;-93
2023/01/18 05:56:46;;;;;;;35.27;16.00;;;-0.50;1.00;;;;;;6216408;23;20168;-92
2023/01/18 05:59:14;;;;;;;34.10;16.53;;;-0.40;1.00;;;;;;6216357;23;20168;-91
2023/01/18 06:01:41;;;;;;;36.93;18.10;;;-0.40;1.00;;;;;;6216147;23;20192;-94
2023/01/18 06:04:09;;;;;;;33.97;18.53;;;-0.40;1.00;;;;;;6216130;23;20179;-94
2023/01/18 06:06:36;;;;;;;35.73;17.60;;;-0.50;1.00;;;;;;6215414;23;20172;-92
2023/01/18 06:09:03;;;;;;;31.80;15.87;;;-0.50;1.00;;;;;;6215321;23;20650;-93
2023/01/18 06:11:30;;;;;;;40.07;18.33;;;-0.50;1.00;;;;;;6216868;23;20165;-92
2023/01/18 06:13:57;;;;;;;34.33;18.23;;;-0.50;1.00;;;;;;6216612;23;20168;-94
2023/01/18 06:16:24;;;;;;;33.50;16.90;;;-0.50;1.00;;;;;;6216603;23;20169;-92
2023/01/18 06:18:51;;;;;;;28.73;14.87;;;-0.50;1.00;;;;;;6216788;23;20196;-92
2023/01/18 06:21:19;;;;;;;31.33;15.93;;;-0.50;1.00;;;;;;6216652;23;20666;-91
2023/01/18 06:23:45;;;;;;;27.97;15.57;;;-0.50;1.00;;;;;;6217048;23;20177;-93
2023/01/18 06:26:12;;;;;;;32.00;15.20;;;-0.50;1.00;;;;;;6217899;23;20169;-94
2023/01/18 06:28:39;;;;;;;32.43;14.40;;;-0.50;1.00;;;;;;6218283;23;20204;-93
2023/01/18 06:31:07;;;;;;;28.37;14.97;;;-0.40;1.00;;;;;;6218672;23;20700;-92
2023/01/18 06:33:34;;;;;;;27.10;14.43;;;-0.40;1.00;;;;;;6218936;23;20173;-94
2023/01/18 06:36:01;;;;;;;28.90;14.63;;;-0.40;1.00;;;;;;6218040;23;20644;-93
2023/01/18 06:38:30;;;;;;;27.67;15.20;;;-0.40;1.00;;;;;;6218553;23;20199;-93
2023/01/18 06:40:57;;;;;;;31.17;16.03;;;-0.40;1.00;;;;;;6218021;23;20194;-92
2023/01/18 06:43:24;;;;;;;29.20;15.50;;;-0.40;1.00;;;;;;6218150;23;20634;-92
2023/01/18 06:45:55;;;;;;;30.43;16.27;;;-0.40;1.00;;;;;;6218783;23;20172;-92
2023/01/18 06:48:22;;;;;;;27.73;13.97;;;-0.40;1.00;;;;;;6218760;23;20172;-92
2023/01/18 06:50:51;;;;;;;28.47;15.70;;;-0.30;1.00;;;;;;6218268;23;20486;-93
2023/01/18 06:53:18;;;;;;;28.43;15.47;;;-0.30;1.00;;;;;;6218034;23;20692;-93
2023/01/18 06:55:55;;;;;;;22.87;11.93;;;-0.30;1.00;;;;;;6218181;23;20169;-93
2023/01/18 06:58:22;;;;;;;24.03;11.93;;;-0.30;1.00;;;;;;6218518;23;20156;-92
2023/01/18 07:00:50;;;;;;;26.40;13.37;;;-0.30;1.00;;;;;;6217936;23;20189;-93
2023/01/18 07:03:17;;;;;;;25.80;13.73;;;-0.30;1.00;;;;;;6217995;23;20175;-92
2023/01/18 07:05:45;;;;;;;27.53;14.53;;;-0.30;1.00;;;;;;6218023;23;20173;-92
2023/01/18 07:08:12;;;;;;;31.70;16.13;;;-0.20;1.00;;;;;;6218039;23;20172;-93
2023/01/18 07:10:38;;;;;;;24.63;12.87;;;-0.20;1.00;;;;;;6217870;23;20164;-92
2023/01/18 07:13:06;;;;;;;36.03;16.33;;;-0.20;1.00;;;;;;6217927;23;20172;-92
2023/01/18 07:15:33;;;;;;;28.60;15.13;;;-0.20;1.00;;;;;;6217809;23;20172;-92
2023/01/18 07:18:00;;;;;;;24.87;14.87;;;-0.10;1.00;;;;;;6217984;23;20172;-93
2023/01/18 07:20:28;;;;;;;30.77;16.13;;;-0.10;1.00;;;;;;6218083;23;20193;-93
2023/01/18 07:22:55;;;;;;;31.97;16.27;;;0.00;1.00;;;;;;6218146;23;20180;-94
2023/01/18 07:25:22;;;;;;;27.37;13.90;;;0.00;1.00;;;;;;6217983;23;20174;-93
2023/01/18 07:27:49;;;;;;;30.30;16.07;;;0.00;1.00;;;;;;6218129;23;20251;-93
2023/01/18 07:30:18;;;;;;;33.13;15.63;;;0.00;1.00;;;;;;6217961;23;20166;-93
2023/01/18 07:32:50;;;;;;;29.57;14.93;;;0.10;1.00;;;;;;6218021;23;20153;-93
2023/01/18 07:35:20;;;;;;;29.07;14.83;;;0.10;1.00;;;;;;6217964;23;20173;-92
2023/01/18 07:37:49;;;;;;;31.97;16.93;;;0.10;1.00;;;;;;6217827;23;20157;-93
2023/01/18 07:40:16;;;;;;;31.10;16.63;;;0.10;99.90;;;;;;6217615;23;20190;-93
2023/01/18 07:42:43;;;;;;;30.30;15.27;;;0.10;1.00;;;;;;6217990;23;20169;-93
2023/01/18 07:45:10;;;;;;;30.77;15.60;;;0.20;1.00;;;;;;6217854;23;20171;-93
2023/01/18 07:47:39;;;;;;;28.13;13.37;;;0.20;99.90;;;;;;6217787;23;20211;-92
2023/01/18 07:50:06;;;;;;;31.33;15.90;;;0.20;99.90;;;;;;6218247;23;20219;-92
2023/01/18 07:52:33;;;;;;;26.90;13.60;;;0.20;99.90;;;;;;6217799;23;20169;-93
2023/01/18 07:55:00;;;;;;;26.10;13.53;;;0.20;99.90;;;;;;6217731;23;20169;-92
2023/01/18 07:57:26;;;;;;;29.47;12.40;;;0.20;99.90;;;;;;6217755;23;20173;-92
2023/01/18 07:59:53;;;;;;;30.73;16.00;;;0.30;99.90;;;;;;6217608;23;20174;-92
2023/01/18 08:02:20;;;;;;;22.13;12.07;;;0.30;99.90;;;;;;6217647;23;20197;-92
2023/01/18 08:04:49;;;;;;;31.43;14.37;;;0.30;99.90;;;;;;6217817;23;20180;-92
2023/01/18 08:07:16;;;;;;;28.47;15.27;;;0.40;99.90;;;;;;6217255;23;20178;-92
2023/01/18 08:09:43;;;;;;;22.00;11.33;;;0.40;99.90;;;;;;6217582;23;20177;-92
2023/01/18 08:12:12;;;;;;;28.33;15.67;;;0.40;99.90;;;;;;6217546;23;20166;-93
2023/01/18 08:14:39;;;;;;;31.93;15.33;;;0.50;99.90;;;;;;6217323;23;20174;-92
2023/01/18 08:17:06;;;;;;;31.87;17.27;;;0.50;99.90;;;;;;6217708;23;20174;-92
2023/01/18 08:19:34;;;;;;;30.07;15.87;;;0.50;99.90;;;;;;6217518;23;20170;-93
2023/01/18 08:22:03;;;;;;;28.17;14.63;;;0.60;99.90;;;;;;6217251;23;20188;-93
2023/01/18 08:24:30;;;;;;;30.33;14.97;;;0.60;99.90;;;;;;6216997;23;20232;-93
2023/01/18 08:26:56;;;;;;;29.23;15.23;;;0.60;47.50;;;;;;6217150;23;20173;-94
2023/01/18 08:29:23;;;;;;;29.27;14.93;;;0.60;14.00;;;;;;6217780;23;20169;-93
2023/01/18 08:31:52;;;;;;;26.97;13.80;;;0.60;17.90;;;;;;6217169;23;20212;-93
2023/01/18 08:34:18;;;;;;;25.77;13.67;;;0.60;6.20;;;;;;6217534;23;20205;-92
2023/01/18 08:36:45;;;;;;;29.20;13.57;;;0.70;1.20;;;;;;6217230;23;20631;-93
2023/01/18 08:39:13;;;;;;;20.43;10.93;;;0.70;1.00;;;;;;6217237;23;20183;-92
2023/01/18 08:41:40;;;;;;;29.87;16.70;;;0.70;1.00;;;;;;6217297;23;20270;-94
2023/01/18 08:44:07;;;;;;;31.73;15.87;;;0.70;1.00;;;;;;6217207;23;20230;-92
2023/01/18 08:46:35;;;;;;;26.73;14.23;;;0.80;1.00;;;;;;6217055;23;20175;-93
2023/01/18 08:49:04;;;;;;;27.67;14.17;;;0.80;1.00;;;;;;6217063;23;20196;-92
2023/01/18 08:51:31;;;;;;;22.70;12.93;;;0.80;1.00;;;;;;6217110;23;20166;-92
2023/01/18 08:53:58;;;;;;;25.53;12.87;;;0.80;1.00;;;;;;6217290;23;20170;-92
2023/01/18 08:56:27;;;;;;;26.40;13.73;;;0.90;1.00;;;;;;6216753;23;20175;-93
2023/01/18 08:58:54;;;;;;;27.80;14.43;;;0.90;1.00;;;;;;6217247;23;20504;-93
2023/01/18 09:01:21;;;;;;;21.17;12.03;;;0.90;1.00;;;;;;6217739;23;20197;-92
2023/01/18 09:03:49;;;;;;;29.93;14.07;;;1.00;1.00;;;;;;6217080;23;20176;-92
2023/01/18 09:06:16;;;;;;;19.77;11.40;;;1.10;1.00;;;;;;6217037;23;20174;-93
2023/01/18 09:08:43;;;;;;;28.37;14.47;;;1.10;1.00;;;;;;6216520;23;20631;-93
2023/01/18 09:11:10;;;;;;;29.63;14.37;;;1.20;1.00;;;;;;6217295;23;20170;-92
2023/01/18 09:13:40;;;;;;;28.77;14.67;;;1.30;1.00;;;;;;6217316;23;20205;-92
2023/01/18 09:16:08;;;;;;;34.13;14.93;;;1.40;1.00;;;;;;6217021;23;20178;-93
2023/01/18 09:18:35;;;;;;;28.63;14.80;;;1.40;1.00;;;;;;6216907;23;20170;-92
2023/01/18 09:21:06;;;;;;;32.03;16.80;;;1.50;1.00;;;;;;6216873;23;20190;-92
2023/01/18 09:23:33;;;;;;;27.60;15.57;;;1.60;99.90;;;;;;6217255;23;20158;-92
2023/01/18 09:26:04;;;;;;;25.00;14.50;;;1.70;99.90;;;;;;6217142;23;20198;-92
2023/01/18 09:28:31;;;;;;;26.83;15.47;;;1.70;99.90;;;;;;6216719;23;20166;-92
2023/01/18 09:31:01;;;;;;;30.87;14.90;;;1.70;1.00;;;;;;6217242;23;20197;-92
2023/01/18 09:33:28;;;;;;;25.03;13.43;;;1.70;1.00;;;;;;6217011;23;20159;-92
2023/01/18 09:35:56;;;;;;;30.87;15.77;;;1.80;1.00;;;;;;6216657;23;20169;-91
2023/01/18 09:38:23;;;;;;;28.57;14.67;;;1.80;1.00;;;;;;6217085;23;20546;-92
2023/01/18 09:40:52;;;;;;;22.83;12.53;;;1.80;1.00;;;;;;6216910;23;20191;-92
2023/01/18 09:43:27;;;;;;;24.37;13.00;;;1.80;1.00;;;;;;6216525;23;20627;-92
2023/01/18 09:45:55;;;;;;;24.83;14.70;;;1.80;1.00;;;;;;6216885;23;20158;-92
2023/01/18 09:48:31;;;;;;;30.77;16.93;;;1.80;1.00;;;;;;6216461;23;20194;-92
2023/01/18 09:51:02;;;;;;;31.70;15.73;;;1.80;1.00;;;;;;6216910;23;20238;-91
2023/01/18 09:53:51;;;;;;;25.63;15.27;;;1.80;1.00;;;;;;6216501;23;20195;-92
2023/01/18 09:56:22;;;;;;;29.33;14.77;;;1.80;1.00;;;;;;6217087;23;20160;-91
2023/01/18 09:58:58;;;;;;;23.90;12.33;;;1.80;1.00;;;;;;6216409;23;20681;-91
2023/01/18 10:01:30;;;;;;;27.80;13.70;;;1.80;1.00;;;;;;6218353;23;20175;-92
2023/01/18 10:04:02;;;;;;;25.33;14.07;;;1.80;1.00;;;;;;6218823;23;20191;-92
2023/01/18 10:06:31;;;;;;;28.83;13.67;;;1.90;1.00;;;;;;6218968;23;20160;-92
2023/01/18 10:09:03;;;;;;;24.67;13.33;;;1.90;1.00;;;;;;6218452;23;20638;-91
2023/01/18 10:11:35;;;;;;;26.97;13.40;;;2.00;1.00;;;;;;6218918;23;20539;-92
2023/01/18 10:14:07;;;;;;;24.30;13.47;;;2.00;1.00;;;;;;6218399;23;20165;-91
2023/01/18 10:16:36;;;;;;;25.83;14.50;;;2.00;1.00;;;;;;6218404;23;20610;-92
2023/01/18 10:19:15;;;;;;;24.47;13.30;;;2.10;1.00;;;;;;6218272;23;20219;-91
2023/01/18 10:21:52;;;;;;;24.53;12.63;;;2.10;1.00;;;;;;6218411;23;20180;-92
2023/01/18 10:24:41;;;;;;;23.03;12.67;;;2.10;99.90;;;;;;6218505;23;20160;-91
2023/01/18 10:27:30;;;;;;;22.37;12.27;;;2.10;99.90;;;;;;6218127;23;20147;-92
2023/01/18 10:30:13;;;;;;;21.77;12.43;;;2.10;99.90;;;;;;6199602;23;20169;-91
2023/01/18 10:32:43;;;;;;;25.07;13.60;;;2.20;99.90;;;;;;6218357;23;20152;-91
2023/01/18 10:35:22;;;;;;;22.00;11.97;;;2.30;99.90;;;;;;6217962;23;20182;-91
2023/01/18 10:37:49;;;;;;;23.03;11.90;;;2.30;99.90;;;;;;6218209;23;20190;-90
2023/01/18 10:40:17;;;;;;;21.47;12.17;;;2.40;76.50;;;;;;6218284;23;20174;-91
2023/01/18 10:42:46;;;;;;;22.50;12.33;;;2.40;1.00;;;;;;6217874;23;20652;-92
2023/01/18 10:45:18;;;;;;;21.17;11.67;;;2.40;1.00;;;;;;6218275;23;20642;-92
2023/01/18 10:47:46;;;;;;;24.37;12.17;;;2.40;1.00;;;;;;6217920;23;20239;-91
2023/01/18 10:50:16;;;;;;;24.40;12.60;;;2.50;1.00;;;;;;6218166;23;20475;-91
2023/01/18 10:52:43;;;;;;;25.40;13.63;;;2.50;1.00;;;;;;6218031;23;20156;-91
2023/01/18 10:55:15;;;;;;;23.77;12.93;;;2.50;1.00;;;;;;6217558;23;20174;-91
2023/01/18 10:57:45;;;;;;;26.13;12.73;;;2.60;1.00;;;;;;6218024;23;20159;-91
2023/01/18 11:00:21;;;;;;;27.07;13.10;;;2.60;1.00;;;;;;6218042;23;20157;-91
2023/01/18 11:02:50;;;;;;;24.90;13.40;;;2.60;1.00;;;;;;6217537;23;20190;-92
2023/01/18 11:05:26;;;;;;;20.57;11.87;;;2.70;1.00;;;;;;6217777;23;20171;-92
2023/01/18 11:08:18;;;;;;;26.77;13.43;;;2.70;1.00;;;;;;6217929;23;20153;-91
2023/01/18 11:10:45;;;;;;;21.70;12.33;;;2.70;1.00;;;;;;6217789;23;20162;-92
2023/01/18 11:13:26;;;;;;;24.57;13.47;;;2.70;99.90;;;;;;6217078;23;20618;-91
2023/01/18 11:16:12;;;;;;;25.87;14.13;;;2.70;1.00;;;;;;6218042;23;20175;-91
2023/01/18 11:18:54;;;;;;;28.90;14.10;;;2.70;99.90;;;;;;6217723;23;20160;-91
2023/01/18 11:21:23;;;;;;;26.20;13.90;;;2.70;99.90;;;;;;6217465;23;20183;-91
2023/01/18 11:23:50;;;;;;;28.67;15.00;;;2.70;99.90;;;;;;6217116;23;20173;-91
2023/01/18 11:26:19;;;;;;;28.00;15.60;;;2.70;99.90;;;;;;6217530;23;20173;-91
2023/01/18 11:28:53;;;;;;;30.67;15.73;;;2.80;1.00;;;;;;6217679;23;20175;-91
2023/01/18 11:31:22;;;;;;;28.60;14.57;;;2.80;1.00;;;;;;6217160;23;20666;-91
2023/01/18 11:33:52;;;;;;;25.50;14.63;;;2.80;1.00;;;;;;6217429;23;20181;-91
2023/01/18 11:36:21;;;;;;;24.40;13.97;;;2.70;1.00;;;;;;6217814;23;20173;-91
2023/01/18 11:38:49;;;;;;;24.53;13.87;;;2.80;1.00;;;;;;6217134;23;20176;-90
2023/01/18 11:41:19;;;;;;;30.83;16.93;;;2.80;1.00;;;;;;6217459;23;20175;-92
2023/01/18 11:44:01;;;;;;;35.43;16.93;;;2.80;1.00;;;;;;6217259;23;20156;-90
2023/01/18 11:46:38;;;;;;;30.03;15.90;;;2.90;1.00;;;;;;6217216;23;20164;-91
2023/01/18 11:49:24;;;;;;;26.57;14.67;;;2.90;1.00;;;;;;6217254;23;20207;-91
2023/01/18 11:51:56;;;;;;;24.23;14.33;;;2.90;99.90;;;;;;6213332;23;20175;-91
2023/01/18 11:54:31;;;;;;;30.60;16.00;;;3.00;99.90;;;;;;6217185;23;20154;-91
2023/01/18 11:57:01;;;;;;;25.83;15.23;;;3.00;99.90;;;;;;6217030;23;20144;-91
2023/01/18 11:59:30;;;;;;;30.80;16.27;;;3.00;1.00;;;;;;6217228;23;20497;-90
2023/01/18 12:02:31;;;;;;;25.23;13.33;;;3.10;1.00;;;;;;6216818;23;20222;-90
2023/01/18 12:05:21;;;;;;;24.63;14.17;;;3.20;1.00;;;;;;6217401;23;20153;-90
2023/01/18 12:07:56;;;;;;;29.20;16.10;;;3.20;99.90;;;;;;6217343;23;20204;-91
2023/01/18 12:10:27;;;;;;;30.00;16.37;;;3.30;99.90;;;;;;6216990;23;20160;-91
2023/01/18 12:13:22;;;;;;;30.40;16.83;;;3.30;99.90;;;;;;6216757;23;20156;-91
2023/01/18 12:16:00;;;;;;;34.93;17.17;;;3.40;99.90;;;;;;6216758;23;20157;-91
2023/01/18 12:18:51;;;;;;;33.80;16.93;;;3.40;99.90;;;;;;6216939;23;20206;-91
2023/01/18 12:21:25;;;;;;;28.07;14.87;;;3.40;99.90;;;;;;6216971;23;20199;-92
2023/01/18 12:24:19;;;;;;;24.37;13.40;;;3.40;1.00;;;;;;6216955;23;20487;-91
2023/01/18 12:26:52;;;;;;;25.30;13.60;;;3.40;33.20;;;;;;6212130;23;20180;-90
2023/01/18 12:29:42;;;;;;;20.67;12.47;;;3.30;1.00;;;;;;6216926;23;20157;-91
2023/01/18 12:32:28;;;;;;;26.07;12.67;;;3.30;99.90;;;;;;6216432;23;20665;-90
2023/01/18 12:35:09;;;;;;;19.23;11.10;;;3.30;99.90;;;;;;6217156;23;20207;-91
2023/01/18 12:37:44;;;;;;;21.30;12.77;;;3.30;99.90;;;;;;6216960;23;20153;-90
2023/01/18 12:40:42;;;;;;;22.07;11.23;;;3.30;99.90;;;;;;6216574;23;20640;-90
2023/01/18 12:43:27;;;;;;;23.83;13.90;;;3.30;99.90;;;;;;6095785;23;20263;-91
2023/01/18 12:46:01;;;;;;;22.30;12.53;;;3.30;99.90;;;;;;6095767;23;20181;-91
2023/01/18 12:48:30;;;;;;;22.80;12.53;;;3.40;99.90;;;;;;6095822;23;20551;-91
2023/01/18 12:50:59;;;;;;;21.53;11.83;;;3.40;99.90;;;;;;6095671;23;20175;-91
2023/01/18 12:53:37;;;;;;;22.27;11.97;;;3.40;99.90;;;;;;6095784;23;20171;-91
2023/01/18 12:56:09;;;;;;;20.50;11.67;;;3.40;99.90;;;;;;6095871;23;20223;-91
2023/01/18 12:58:38;;;;;;;18.67;10.50;;;3.40;1.00;;;;;;6095806;23;20622;-91
2023/01/18 13:01:09;;;;;;;28.50;12.50;;;3.40;1.00;;;;;;6095719;23;20637;-91
2023/01/18 13:03:42;;;;;;;21.40;11.27;;;3.30;1.00;;;;;;6095467;23;20196;-91
2023/01/18 13:06:10;;;;;;;23.47;14.10;;;3.30;1.00;;;;;;6095650;23;20162;-92
2023/01/18 13:08:40;;;;;;;25.60;13.37;;;3.30;22.60;;;;;;6095631;23;20171;-90
2023/01/18 13:11:12;;;;;;;23.80;13.20;;;3.30;99.90;;;;;;6095911;23;20155;-91
2023/01/18 13:13:43;;;;;;;21.27;12.97;;;3.30;99.90;;;;;;6095487;23;20168;-90
2023/01/18 13:16:33;;;;;;;21.00;12.50;;;3.40;1.00;;;;;;6095552;23;20159;-91
2023/01/18 13:19:04;;;;;;;24.70;13.77;;;3.50;1.00;;;;;;6095654;23;20175;-92
2023/01/18 13:22:01;;;;;;;21.37;12.57;;;3.60;99.90;;;;;;6213223;23;20168;-91
2023/01/18 13:24:52;;;;;;;20.50;11.97;;;3.60;99.90;;;;;;6204086;23;20168;-91
2023/01/18 13:27:19;;;;;;;24.27;13.13;;;3.60;99.90;;;;;;6216390;23;20157;-91
2023/01/18 13:29:47;;;;;;;24.70;13.67;;;3.60;99.90;;;;;;6216920;23;20178;-91
2023/01/18 13:32:27;;;;;;;22.73;13.60;;;3.60;99.70;;;;;;6216292;23;20195;-90
2023/01/18 13:34:59;;;;;;;26.97;13.00;;;3.50;99.90;;;;;;6217286;23;20159;-91
2023/01/18 13:37:48;;;;;;;24.57;13.50;;;3.50;99.90;;;;;;6218527;23;20623;-91
2023/01/18 13:40:26;;;;;;;26.23;14.70;;;3.40;99.90;;;;;;6209464;23;20168;-91
2023/01/18 13:42:53;;;;;;;22.43;13.47;;;3.40;99.90;;;;;;6218342;23;20183;-90
2023/01/18 13:45:23;;;;;;;26.97;15.33;;;3.40;99.90;;;;;;6218223;23;20177;-91
2023/01/18 13:48:29;;;;;;;35.13;18.50;;;3.40;99.90;;;;;;6218982;23;20213;-92
2023/01/18 13:50:56;;;;;;;29.67;16.53;;;3.40;1.00;;;;;;6217700;23;20174;-90
2023/01/18 13:53:27;;;;;;;26.20;15.33;;;3.40;99.90;;;;;;6218371;23;20252;-91
2023/01/18 13:56:23;;;;;;;29.87;15.90;;;3.30;1.00;;;;;;6218247;23;20169;-91
2023/01/18 13:59:02;;;;;;;28.30;16.70;;;3.30;1.00;;;;;;6218539;23;20180;-91
2023/01/18 14:01:33;;;;;;;28.23;16.70;;;3.20;1.00;;;;;;6218203;23;20152;-91
2023/01/18 14:04:19;;;;;;;31.13;19.17;;;3.20;1.00;;;;;;6218456;23;20181;-91
2023/01/18 14:06:46;;;;;;;32.30;16.47;;;3.10;1.00;;;;;;6218545;23;20471;-91
2023/01/18 14:09:17;;;;;;;25.20;15.17;;;3.10;1.00;;;;;;6218224;23;20169;-92
2023/01/18 14:11:52;;;;;;;27.87;17.00;;;3.10;1.00;;;;;;6218151;23;20244;-92
2023/01/18 14:14:28;;;;;;;25.37;14.33;;;3.00;1.00;;;;;;6218305;23;20152;-91
2023/01/18 14:17:05;;;;;;;25.30;15.07;;;3.00;1.00;;;;;;6217659;23;20490;-92
2023/01/18 14:19:56;;;;;;;25.77;14.23;;;3.00;1.00;;;;;;6217965;23;20622;-91
2023/01/18 14:22:34;;;;;;;26.13;14.17;;;2.90;1.00;;;;;;6217954;23;20177;-90
2023/01/18 14:25:26;;;;;;;24.50;14.23;;;2.90;1.00;;;;;;6218222;23;20156;-91
2023/01/18 14:28:02;;;;;;;28.80;15.57;;;2.90;1.00;;;;;;6217845;23;20161;-91
2023/01/18 14:30:33;;;;;;;28.10;15.50;;;2.80;1.00;;;;;;6217944;23;20532;-91
2023/01/18 14:33:06;;;;;;;31.20;15.97;;;2.80;1.00;;;;;;6217753;23;20156;-90
2023/01/18 14:35:33;;;;;;;29.67;16.83;;;2.80;99.90;;;;;;6218029;23;20160;-91
2023/01/18 14:38:07;;;;;;;29.97;17.63;;;2.80;99.90;;;;;;6217704;23;20173;-91
2023/01/18 14:40:35;;;;;;;42.53;24.87;;;2.80;99.90;;;;;;6217440;23;20714;-91
2023/01/18 14:43:05;;;;;;;43.07;23.37;;;2.80;99.90;;;;;;6217764;23;20193;-91
2023/01/18 14:45:34;;;;;;;44.23;25.40;;;2.80;99.90;;;;;;6218034;23;20225;-91
2023/01/18 14:48:09;;;;;;;35.73;20.67;;;2.90;99.90;;;;;;6217480;23;20199;-90
2023/01/18 14:50:40;;;;;;;26.03;14.13;;;2.90;99.90;;;;;;6218201;23;20482;-91
2023/01/18 14:53:13;;;;;;;24.13;13.50;;;2.90;99.90;;;;;;6217994;23;20180;-91
2023/01/18 14:55:39;;;;;;;28.03;15.50;;;2.80;99.90;;;;;;6217740;23;20225;-92
2023/01/18 14:58:14;;;;;;;30.13;16.07;;;2.70;99.90;;;;;;6218280;23;20175;-91
2023/01/18 15:00:47;;;;;;;26.33;16.60;;;2.60;99.90;;;;;;6218166;23;20172;-91
2023/01/18 15:03:21;;;;;;;30.30;17.07;;;2.60;1.00;;;;;;6217750;23;20183;-91
2023/01/18 15:05:50;;;;;;;26.63;15.03;;;2.60;1.00;;;;;;6217821;23;20159;-91
2023/01/18 15:08:18;;;;;;;25.83;15.20;;;2.50;1.00;;;;;;6217881;23;20171;-91
2023/01/18 15:10:45;;;;;;;29.10;16.33;;;2.50;1.00;;;;;;6217648;23;20501;-91
2023/01/18 15:13:16;;;;;;;27.50;15.70;;;2.40;1.00;;;;;;6217378;23;20180;-92
2023/01/18 15:15:44;;;;;;;26.20;16.50;;;2.40;1.00;;;;;;6217328;23;20487;-91
2023/01/18 15:18:18;;;;;;;28.63;17.13;;;2.40;1.00;;;;;;6217686;23;20171;-91
2023/01/18 15:20:56;;;;;;;31.20;18.50;;;2.30;1.00;;;;;;6217803;23;20185;-91
2023/01/18 15:23:25;;;;;;;32.57;18.90;;;2.30;1.00;;;;;;6217418;23;20183;-91
2023/01/18 15:25:53;;;;;;;29.73;17.83;;;2.30;1.00;;;;;;6217756;23;20173;-91
2023/01/18 15:28:21;;;;;;;30.63;18.23;;;2.30;1.00;;;;;;6217612;23;20172;-91
2023/01/18 15:30:49;;;;;;;31.60;16.53;;;2.20;60.50;;;;;;6217527;23;20195;-91
2023/01/18 15:33:19;;;;;;;25.23;15.33;;;2.20;99.90;;;;;;6217719;23;20156;-92
2023/01/18 15:35:46;;;;;;;26.67;15.67;;;2.20;99.90;;;;;;6217444;23;20198;-92
2023/01/18 15:38:13;;;;;;;26.33;15.07;;;2.30;99.90;;;;;;6217031;23;20251;-91
2023/01/18 15:40:43;;;;;;;25.50;15.00;;;2.30;99.90;;;;;;6217244;23;20167;-91
2023/01/18 15:43:24;;;;;;;25.47;14.63;;;2.20;99.90;;;;;;6217064;23;20642;-91
2023/01/18 15:45:54;;;;;;;24.50;13.90;;;2.30;99.90;;;;;;6217986;23;20165;-92
2023/01/18 15:48:24;;;;;;;25.80;14.83;;;2.30;99.90;;;;;;6217533;23;20160;-92
2023/01/18 15:50:53;;;;;;;24.03;14.30;;;2.30;99.90;;;;;;6217401;23;20164;-92
2023/01/18 15:53:22;;;;;;;25.60;14.40;;;2.30;99.90;;;;;;6217295;23;20644;-91
2023/01/18 15:55:52;;;;;;;23.70;14.27;;;2.30;99.90;;;;;;6217718;23;20169;-92
2023/01/18 15:58:26;;;;;;;23.03;14.10;;;2.30;81.10;;;;;;6217090;23;20713;-91
2023/01/18 16:00:55;;;;;;;23.67;14.50;;;2.30;25.50;;;;;;6217645;23;20257;-92
2023/01/18 16:03:26;;;;;;;27.93;16.23;;;2.30;60.10;;;;;;6217790;23;20195;-93
2023/01/18 16:06:17;;;;;;;31.63;18.80;;;2.30;99.90;;;;;;6217666;23;20237;-93
2023/01/18 16:09:07;;;;;;;32.53;19.80;;;2.30;99.90;;;;;;6188383;23;20173;-93
2023/01/18 16:11:35;;;;;;;43.53;25.07;;;2.30;99.90;;;;;;6216900;23;20167;-94
2023/01/18 16:14:06;;;;;;;37.73;21.73;;;2.30;99.90;;;;;;6217258;23;20174;-92
2023/01/18 16:16:37;;;;;;;38.63;22.87;;;2.30;91.40;;;;;;6217354;23;20199;-92
2023/01/18 16:19:13;;;;;;;32.33;19.93;;;2.30;61.10;;;;;;6217197;23;20156;-93
2023/01/18 16:21:45;;;;;;;32.93;19.80;;;2.30;99.90;;;;;;6217246;23;20209;-94
2023/01/18 16:24:26;;;;;;;31.80;19.93;;;2.30;99.90;;;;;;6217341;23;20276;-92
2023/01/18 16:26:55;;;;;;;27.90;17.97;;;2.40;99.90;;;;;;6217466;23;20586;-93
2023/01/18 16:29:21;;;;;;;36.67;20.77;;;2.40;99.90;;;;;;6217063;23;20175;-93
2023/01/18 16:31:48;;;;;;;38.90;25.80;;;2.40;87.90;;;;;;6217417;23;20199;-93
2023/01/18 16:34:23;;;;;;;35.97;21.73;;;2.50;99.90;;;;;;6216911;23;20174;-94
2023/01/18 16:36:51;;;;;;;35.80;19.83;;;2.40;26.90;;;;;;6217254;23;20148;-95
2023/01/18 16:39:18;;;;;;;36.63;21.83;;;2.50;1.00;;;;;;6217483;23;20173;-92
2023/01/18 16:41:53;;;;;;;42.27;24.67;;;2.40;21.70;;;;;;6216260;23;20169;-92
2023/01/18 16:44:21;;;;;;;46.70;28.03;;;2.40;99.90;;;;;;6216899;23;20195;-93
2023/01/18 16:46:48;;;;;;;52.07;31.07;;;2.50;99.90;;;;;;6217105;23;20222;-92
2023/01/18 16:49:16;;;;;;;42.47;25.20;;;2.40;99.90;;;;;;6217077;23;20169;-93
2023/01/18 16:51:44;;;;;;;39.40;23.40;;;2.50;99.90;;;;;;6217068;23;20543;-90
2023/01/18 16:54:11;;;;;;;39.80;22.77;;;2.50;99.90;;;;;;6215834;23;20169;-92
2023/01/18 16:56:39;;;;;;;35.97;19.87;;;2.50;30.10;;;;;;6217037;23;20178;-92
2023/01/18 16:59:16;;;;;;;38.30;22.53;;;2.50;65.20;;;;;;6217190;23;20627;-88
2023/01/18 17:01:43;;;;;;;32.23;20.00;;;2.50;99.90;;;;;;6217131;23;20159;-90
2023/01/18 17:04:11;;;;;;;34.97;18.60;;;2.50;85.60;;;;;;6216607;23;20192;-91
2023/01/18 17:06:38;;;;;;;36.03;20.43;;;2.60;99.90;;;;;;6214136;23;20177;-92
2023/01/18 17:09:21;;;;;;;37.07;20.77;;;2.60;1.00;;;;;;6215502;23;20176;-92
2023/01/18 17:11:49;;;;;;;38.30;22.00;;;2.50;1.00;;;;;;6217211;23;20164;-92
2023/01/18 17:14:16;;;;;;;41.93;23.47;;;2.60;1.00;;;;;;6219922;23;20698;-91
2023/01/18 17:16:55;;;;;;;;;;;;;;;;;;;;;
2023/01/18 17:19:24;;;;;;;39.33;21.07;;;2.50;1.00;;;;;;6217363;23;20169;-93
2023/01/18 17:21:51;;;;;;;39.90;21.23;;;2.50;1.00;;;;;;6217842;23;20173;-92
2023/01/18 17:24:20;;;;;;;35.17;20.37;;;2.40;1.00;;;;;;6211561;23;20292;-92
2023/01/18 17:26:48;;;;;;;30.67;18.60;;;2.40;18.40;;;;;;6187825;23;20154;-91
2023/01/18 17:29:16;;;;;;;29.13;17.37;;;2.40;91.80;;;;;;6186205;23;20635;-92
2023/01/18 17:31:44;;;;;;;30.30;16.50;;;2.40;99.90;;;;;;6186343;23;20173;-92
2023/01/18 17:34:14;;;;;;;31.93;17.97;;;2.40;99.90;;;;;;6185753;23;20239;-92
2023/01/18 17:36:41;;;;;;;33.13;18.40;;;2.30;99.90;;;;;;6186949;23;20232;-92
2023/01/18 17:39:08;;;;;;;33.07;18.67;;;2.30;99.90;;;;;;6186295;23;20179;-92
2023/01/18 17:41:36;;;;;;;36.27;20.00;;;2.30;99.90;;;;;;6186728;23;20182;-93
2023/01/18 17:44:04;;;;;;;34.07;20.17;;;2.40;99.90;;;;;;6187221;23;20189;-93
2023/01/18 17:46:31;;;;;;;33.67;20.03;;;2.40;99.90;;;;;;6186849;23;20173;-92
2023/01/18 17:48:58;;;;;;;40.40;20.80;;;2.40;99.90;;;;;;6186501;23;20166;-93
2023/01/18 17:51:25;;;;;;;37.00;19.73;;;2.40;99.90;;;;;;6186821;23;20169;-92
2023/01/18 17:53:53;;;;;;;37.60;21.47;;;2.40;99.90;;;;;;6186769;23;20252;-92
2023/01/18 17:56:20;;;;;;;40.90;22.00;;;2.40;99.90;;;;;;6186094;23;20228;-92
2023/01/18 17:58:49;;;;;;;36.10;21.53;;;2.40;99.90;;;;;;6187119;23;20176;-91
2023/01/18 18:01:17;;;;;;;35.07;20.07;;;2.30;99.90;;;;;;6186116;23;20177;-92
2023/01/18 18:03:46;;;;;;;35.03;18.90;;;2.40;99.90;;;;;;6186214;23;20664;-93
2023/01/18 18:06:13;;;;;;;36.63;20.00;;;2.40;99.90;;;;;;6186314;23;20243;-93
2023/01/18 18:08:40;;;;;;;41.47;22.97;;;2.30;99.90;;;;;;6186745;23;20170;-92
2023/01/18 18:11:08;;;;;;;31.77;18.93;;;2.30;1.00;;;;;;6187004;23;20174;-93
2023/01/18 18:13:35;;;;;;;34.13;20.53;;;2.30;1.00;;;;;;6186253;23;20166;-93
2023/01/18 18:16:04;;;;;;;31.57;16.70;;;2.30;1.00;;;;;;6186600;23;20495;-93
2023/01/18 18:18:31;;;;;;;33.43;18.83;;;2.30;1.00;;;;;;6186983;23;20170;-93
2023/01/18 18:20:59;;;;;;;29.70;16.57;;;2.30;1.00;;;;;;6186402;23;20183;-93
2023/01/18 18:23:26;;;;;;;32.37;17.13;;;2.30;1.00;;;;;;6186170;23;20180;-93
2023/01/18 18:25:53;;;;;;;30.80;17.87;;;2.30;1.00;;;;;;6187944;23;20734;-93
2023/01/18 18:31:14;;;;;;;38.67;18.20;;;2.20;1.00;;;;;;6155119;23;20936;-96
2023/01/18 18:33:41;;;;;;;37.43;20.90;;;2.20;1.00;;;;;;6188297;23;20173;-93
2023/01/18 18:36:08;;;;;;;35.27;19.07;;;2.20;1.00;;;;;;6188504;23;20556;-92